Time;durP1;ratioP1;P1;durP2;ratioP2;P2;SDS_P1;SDS_P2;PMS_P1;PMS_P2;Temp;Humidity;BMP_temperature;BMP_pressure;BME280_temperature;BME280_humidity;BME280_pressure;Samples;Min_cycle;Max_cycle;Signal;HPM_P1;HPM_P2
2023/01/09 00:09:31;;;;;;;0.00;0.00;;;3.20;99.90;;;;;;21155086;28;20061;-48
2023/01/09 00:19:32;;;;;;;0.00;0.00;;;3.20;99.90;;;;;;21129159;28;20046;-52
2023/01/09 00:29:35;;;;;;;0.00;0.00;;;3.30;99.90;;;;;;21161863;28;20035;-51
2023/01/09 00:39:38;;;;;;;0.00;0.00;;;3.40;99.90;;;;;;21143223;28;20028;-50
2023/01/09 00:49:40;;;;;;;0.00;0.00;;;3.50;99.90;;;;;;21143409;28;20059;-49
2023/01/09 00:59:42;;;;;;;0.00;0.00;;;3.60;99.90;;;;;;21101422;28;20044;-52
2023/01/09 01:09:44;;;;;;;0.00;0.00;;;3.70;99.90;;;;;;21148751;28;20039;-53
2023/01/09 01:19:46;;;;;;;0.00;0.00;;;3.80;99.90;;;;;;21100571;28;20116;-51
2023/01/09 01:29:47;;;;;;;0.00;0.00;;;3.80;99.90;;;;;;21072500;28;20393;-50
2023/01/09 01:39:50;;;;;;;0.00;0.00;;;3.90;99.90;;;;;;21093595;28;20449;-52
2023/01/09 01:49:52;;;;;;;0.00;0.00;;;3.90;99.90;;;;;;21115984;28;20066;-54
2023/01/09 01:59:58;;;;;;;0.00;0.00;;;3.90;99.90;;;;;;21155397;28;20044;-51
2023/01/09 02:10:00;;;;;;;0.00;0.00;;;4.00;99.90;;;;;;21128261;28;20066;-49
2023/01/09 02:20:20;;;;;;;0.77;0.00;;;4.00;99.90;;;;;;21127800;28;20031;-52
2023/01/09 02:30:30;;;;;;;1.10;0.00;;;4.10;99.90;;;;;;21116527;28;20031;-50
2023/01/09 02:40:53;;;;;;;0.10;0.00;;;4.10;99.90;;;;;;21138004;28;20053;-50
2023/01/09 02:51:24;;;;;;;5.97;0.00;;;4.10;99.90;;;;;;21135150;28;20043;-51
2023/01/09 03:01:25;;;;;;;;;;;4.20;99.90;;;;;;21126756;28;20124;-49
2023/01/09 03:11:34;;;;;;;0.00;0.00;;;4.20;99.90;;;;;;21151189;28;19919;-51
2023/01/09 03:21:37;;;;;;;0.00;0.00;;;4.20;99.90;;;;;;21136504;28;20032;-47
2023/01/09 03:31:38;;;;;;;2.28;0.00;;;4.20;99.90;;;;;;21146114;28;20089;-48
2023/01/09 03:41:40;;;;;;;0.00;0.00;;;4.20;99.90;;;;;;21155442;28;20043;-51
2023/01/09 03:51:42;;;;;;;2.50;0.00;;;4.30;99.90;;;;;;21148155;28;20040;-47
2023/01/09 04:01:44;;;;;;;0.00;0.00;;;4.30;99.90;;;;;;21155830;28;20554;-54
2023/01/09 04:11:45;;;;;;;0.00;0.00;;;4.30;99.90;;;;;;21163344;28;20092;-55
2023/01/09 04:21:47;;;;;;;2.35;0.00;;;4.30;99.90;;;;;;21145985;28;20096;-51
2023/01/09 04:31:49;;;;;;;4.82;0.15;;;4.30;99.90;;;;;;21153598;28;20032;-55
2023/01/09 04:41:50;;;;;;;4.93;0.00;;;4.30;99.90;;;;;;21150362;28;20047;-54
2023/01/09 04:51:52;;;;;;;21.52;0.60;;;4.30;99.90;;;;;;21143160;28;20066;-55
2023/01/09 05:01:54;;;;;;;2.13;0.00;;;4.40;99.90;;;;;;21151098;28;20468;-47
2023/01/09 05:11:56;;;;;;;34.63;0.70;;;4.40;99.90;;;;;;21141235;28;20420;-53
2023/01/09 05:21:58;;;;;;;74.63;1.50;;;4.50;99.90;;;;;;21141101;28;20031;-54
2023/01/09 05:31:59;;;;;;;3.92;0.00;;;4.50;99.90;;;;;;21131352;28;20027;-49
2023/01/09 05:42:01;;;;;;;69.97;1.58;;;4.40;99.90;;;;;;21146362;28;20325;-49
2023/01/09 05:52:03;;;;;;;12.32;0.13;;;4.50;99.90;;;;;;21138397;28;20043;-54
2023/01/09 06:02:05;;;;;;;94.70;2.28;;;4.30;99.90;;;;;;21146705;28;20171;-46
2023/01/09 06:12:07;;;;;;;42.00;1.45;;;4.00;99.90;;;;;;21153716;28;20472;-54
2023/01/09 06:22:09;;;;;;;0.95;0.00;;;4.00;99.90;;;;;;21119636;28;20055;-53
2023/01/09 06:32:11;;;;;;;1.20;0.00;;;4.00;99.90;;;;;;21144795;28;20093;-52
2023/01/09 06:42:12;;;;;;;0.00;0.00;;;3.90;99.90;;;;;;21141310;28;20093;-55
2023/01/09 06:52:14;;;;;;;0.28;0.00;;;3.90;99.90;;;;;;21135281;28;20043;-51
2023/01/09 07:02:20;;;;;;;15.32;0.25;;;4.00;99.90;;;;;;21143290;28;20490;-54
2023/01/09 07:12:22;;;;;;;0.00;0.00;;;4.00;99.90;;;;;;21164580;28;20036;-52
2023/01/09 07:22:23;;;;;;;0.00;0.00;;;3.90;99.90;;;;;;21152156;28;20106;-56
2023/01/09 07:32:25;;;;;;;0.30;0.00;;;3.90;99.90;;;;;;21140917;28;20416;-56
2023/01/09 07:42:26;;;;;;;0.35;0.00;;;3.90;99.90;;;;;;21155357;28;20024;-51
2023/01/09 07:52:28;;;;;;;4.45;0.00;;;3.90;99.90;;;;;;21130484;28;20035;-48
2023/01/09 08:02:29;;;;;;;4.38;0.00;;;3.90;99.90;;;;;;21105307;28;20487;-53
2023/01/09 08:12:31;;;;;;;0.00;0.00;;;4.00;99.90;;;;;;21163556;28;20039;-51
2023/01/09 08:22:33;;;;;;;0.03;0.00;;;3.90;99.90;;;;;;21129896;28;20027;-52
2023/01/09 08:32:35;;;;;;;59.15;1.40;;;3.90;99.90;;;;;;21153552;28;20031;-54
2023/01/09 08:52:57;;;;;;;62.70;1.83;;;4.30;99.90;;;;;;21142853;28;20046;-54
2023/01/09 09:03:00;;;;;;;15.70;0.80;;;4.40;99.90;;;;;;21107885;28;20035;-55
2023/01/09 09:13:01;;;;;;;0.88;0.43;;;4.70;99.90;;;;;;21149172;28;20036;-51
2023/01/09 09:23:04;;;;;;;58.08;2.08;;;5.10;99.90;;;;;;21129554;28;20024;-55
2023/01/09 09:33:06;;;;;;;88.30;3.30;;;5.30;99.90;;;;;;21119368;28;20027;-53
2023/01/09 09:53:40;;;;;;;33.47;0.85;;;5.10;99.90;;;;;;21138344;28;20480;-52
2023/01/09 10:04:13;;;;;;;23.33;1.38;;;4.80;99.90;;;;;;21139330;28;20398;-49
2023/01/09 10:14:15;;;;;;;5.82;0.85;;;5.00;99.90;;;;;;21104266;28;20047;-50
2023/01/09 10:24:32;;;;;;;220.38;6.28;;;5.40;99.90;;;;;;21086429;28;20032;-48
2023/01/09 10:34:47;;;;;;;55.67;1.25;;;5.00;99.90;;;;;;21091623;28;20101;-52
2023/01/09 10:45:04;;;;;;;14.38;1.00;;;4.30;99.90;;;;;;21161177;28;20047;-50
2023/01/09 10:55:20;;;;;;;1.35;0.28;;;4.40;99.90;;;;;;21136475;28;20036;-49
2023/01/09 11:05:25;;;;;;;120.90;3.13;;;5.20;99.90;;;;;;21160671;28;20027;-54
2023/01/09 11:15:30;;;;;;;204.00;5.13;;;5.60;99.90;;;;;;21129765;28;20040;-54
2023/01/09 11:25:31;;;;;;;0.00;0.00;;;4.30;99.90;;;;;;21121003;28;20036;-52
2023/01/09 11:35:34;;;;;;;0.00;0.00;;;4.00;99.90;;;;;;21147714;28;20024;-52
2023/01/09 11:45:44;;;;;;;0.00;0.00;;;4.10;99.90;;;;;;21137226;28;20036;-55
2023/01/09 11:55:52;;;;;;;0.00;0.00;;;3.50;99.90;;;;;;21162427;28;20035;-51
2023/01/09 12:06:11;;;;;;;0.10;0.00;;;2.80;99.90;;;;;;21161874;28;20040;-52
2023/01/09 12:16:39;;;;;;;0.28;0.00;;;2.00;99.90;;;;;;21154071;28;20040;-54
2023/01/09 12:26:50;;;;;;;0.10;0.00;;;1.80;99.90;;;;;;21161640;28;20081;-54
2023/01/09 12:37:00;;;;;;;;;;;1.60;99.90;;;;;;21157239;28;20357;-56
2023/01/09 12:47:23;;;;;;;0.17;0.10;;;1.60;99.90;;;;;;21156905;28;19927;-56
2023/01/09 12:57:36;;;;;;;0.20;0.20;;;1.80;99.90;;;;;;21151604;28;20101;-59
2023/01/09 13:07:46;;;;;;;0.50;0.30;;;1.70;99.90;;;;;;21155862;28;20032;-59
2023/01/09 13:17:50;;;;;;;0.80;0.40;;;1.70;99.90;;;;;;21156317;28;20135;-60
2023/01/09 13:27:59;;;;;;;0.70;0.50;;;1.60;99.90;;;;;;21156598;28;20480;-59
2023/01/09 13:38:01;;;;;;;0.70;0.30;;;1.60;99.90;;;;;;21151617;28;20057;-60
2023/01/09 13:48:09;;;;;;;0.20;0.10;;;1.50;99.90;;;;;;21152358;28;20028;-59
2023/01/09 13:58:18;;;;;;;0.20;0.10;;;1.60;99.90;;;;;;21152309;28;20039;-60
2023/01/09 14:08:29;;;;;;;0.60;0.00;;;1.80;99.90;;;;;;21151670;28;20484;-59
2023/01/09 14:18:34;;;;;;;0.00;0.00;;;1.80;99.90;;;;;;21151356;28;20047;-60
2023/01/09 14:28:36;;;;;;;0.03;0.00;;;1.60;99.90;;;;;;21135408;28;20039;-59
2023/01/09 14:38:43;;;;;;;0.65;0.00;;;1.80;99.90;;;;;;21148844;28;20039;-59
2023/01/09 14:49:20;;;;;;;0.03;0.00;;;2.10;99.90;;;;;;21134232;28;20117;-59
2023/01/09 14:59:21;;;;;;;0.15;0.00;;;2.20;99.90;;;;;;21131333;28;20121;-59
2023/01/09 15:09:27;;;;;;;0.00;0.00;;;2.20;99.90;;;;;;21075032;28;20032;-59
2023/01/09 15:19:31;;;;;;;0.00;0.00;;;2.30;99.90;;;;;;21083575;28;20040;-60
2023/01/09 15:29:32;;;;;;;0.00;0.00;;;2.30;99.90;;;;;;21124121;28;20047;-60
2023/01/09 15:39:38;;;;;;;0.05;0.00;;;2.40;99.90;;;;;;21085129;28;20058;-60
2023/01/09 15:49:39;;;;;;;0.00;0.00;;;2.40;99.90;;;;;;21120005;28;20040;-60
2023/01/09 15:59:41;;;;;;;0.00;0.00;;;2.40;99.90;;;;;;21164623;28;20039;-60
2023/01/09 16:09:46;;;;;;;0.00;0.00;;;2.30;99.90;;;;;;21155598;28;20431;-60
2023/01/09 16:19:56;;;;;;;0.00;0.00;;;2.20;99.90;;;;;;21146878;28;20035;-60
2023/01/09 16:30:00;;;;;;;0.50;0.00;;;2.10;99.90;;;;;;21163391;28;20036;-60
2023/01/09 16:40:15;;;;;;;0.00;0.00;;;2.00;99.90;;;;;;21143090;28;20035;-60
2023/01/09 16:50:17;;;;;;;0.10;0.00;;;1.90;99.90;;;;;;21144369;28;20108;-60
2023/01/09 17:00:20;;;;;;;0.20;0.10;;;1.80;99.90;;;;;;21158178;28;20032;-60
2023/01/09 17:10:23;;;;;;;0.00;0.00;;;1.70;99.90;;;;;;21153645;28;20093;-60
2023/01/09 17:20:28;;;;;;;0.10;0.00;;;1.90;99.90;;;;;;21123929;28;20043;-60
2023/01/09 17:30:30;;;;;;;0.10;0.00;;;1.60;99.90;;;;;;21135690;28;20039;-60
2023/01/09 17:40:32;;;;;;;0.45;0.00;;;1.60;99.90;;;;;;21142968;28;20028;-60
2023/01/09 17:50:35;;;;;;;0.08;0.00;;;1.30;99.90;;;;;;21125933;28;20114;-60
2023/01/09 18:00:36;;;;;;;0.00;0.00;;;1.30;99.90;;;;;;21118005;28;20074;-60
2023/01/09 18:10:39;;;;;;;0.13;0.00;;;1.50;99.90;;;;;;21151631;28;20488;-60
2023/01/09 18:20:42;;;;;;;0.00;0.00;;;1.40;99.90;;;;;;21106933;28;20032;-60
2023/01/09 18:30:46;;;;;;;0.10;0.00;;;1.20;99.90;;;;;;21148025;28;20051;-60
2023/01/09 18:40:48;;;;;;;0.10;0.00;;;0.90;99.90;;;;;;21100820;28;20035;-60
2023/01/09 18:50:50;;;;;;;0.75;0.10;;;1.00;99.90;;;;;;21136311;28;20096;-59
2023/01/09 19:00:54;;;;;;;2.20;0.10;;;1.20;99.90;;;;;;21137684;28;20432;-59
2023/01/09 19:10:56;;;;;;;0.00;0.00;;;1.10;99.90;;;;;;21149214;28;20480;-59
2023/01/09 19:20:58;;;;;;;0.10;0.00;;;0.80;99.90;;;;;;21153462;28;20042;-59
2023/01/09 19:31:00;;;;;;;0.10;0.00;;;0.20;99.90;;;;;;21159659;28;20377;-59
2023/01/09 19:41:12;;;;;;;0.88;0.10;;;-0.30;99.90;;;;;;21080047;28;20031;-55
2023/01/09 19:51:15;;;;;;;0.35;0.03;;;-0.40;99.90;;;;;;21116880;28;20039;-55
2023/01/09 20:01:23;;;;;;;0.30;0.05;;;-0.60;99.90;;;;;;21156624;28;20085;-59
2023/01/09 20:11:27;;;;;;;0.10;0.03;;;-0.60;99.90;;;;;;21164300;28;20484;-53
2023/01/09 20:21:29;;;;;;;0.15;0.00;;;-0.80;99.90;;;;;;21128589;28;20084;-59
2023/01/09 20:31:31;;;;;;;0.10;0.00;;;-0.90;99.90;;;;;;21154785;28;20480;-59
2023/01/09 20:41:33;;;;;;;0.13;0.00;;;-0.90;99.90;;;;;;21152376;28;20023;-52
2023/01/09 20:51:40;;;;;;;0.25;0.00;;;-1.00;99.90;;;;;;21144394;28;20040;-55
2023/01/09 21:01:42;;;;;;;0.00;0.00;;;-1.00;99.90;;;;;;21153446;28;20035;-61
2023/01/09 21:11:43;;;;;;;0.10;0.00;;;-0.90;99.90;;;;;;21125547;28;20081;-60
2023/01/09 21:21:45;;;;;;;0.20;0.10;;;-1.10;99.90;;;;;;21125452;28;20073;-55
2023/01/09 21:31:46;;;;;;;0.25;0.05;;;-1.10;99.90;;;;;;21148806;28;20077;-59
2023/01/09 21:52:11;;;;;;;0.30;0.10;;;-1.30;99.90;;;;;;21139566;28;20043;-58
2023/01/09 22:02:14;;;;;;;0.08;0.00;;;-1.50;99.90;;;;;;21138805;28;20092;-59
2023/01/09 22:12:16;;;;;;;0.00;0.00;;;-1.40;99.90;;;;;;21155016;28;20081;-53
2023/01/09 22:22:17;;;;;;;0.00;0.00;;;-1.40;99.90;;;;;;21137657;28;20039;-58
2023/01/09 22:32:21;;;;;;;0.10;0.00;;;-1.40;99.90;;;;;;21145252;28;20035;-59
2023/01/09 22:42:22;;;;;;;0.10;0.00;;;-1.30;99.90;;;;;;21143731;28;20365;-59
2023/01/09 22:52:24;;;;;;;0.32;0.20;;;-1.40;99.90;;;;;;21119286;28;20496;-54
2023/01/09 23:02:26;;;;;;;0.10;0.00;;;-1.30;99.90;;;;;;21110540;28;20043;-59
2023/01/09 23:12:28;;;;;;;0.20;0.05;;;-1.50;99.90;;;;;;21143740;28;20043;-59
2023/01/09 23:22:29;;;;;;;0.40;0.00;;;-1.60;99.90;;;;;;21137164;28;20081;-59
2023/01/09 23:32:31;;;;;;;0.00;0.00;;;-1.60;99.90;;;;;;21127273;28;20500;-55
2023/01/09 23:52:53;;;;;;;0.60;0.00;;;-1.70;99.90;;;;;;21144548;28;20047;-59
